Time;durP1;ratioP1;P1;durP2;ratioP2;P2;SDS_P1;SDS_P2;PMS_P1;PMS_P2;Temp;Humidity;BMP_temperature;BMP_pressure;BME280_temperature;BME280_humidity;BME280_pressure;Samples;Min_cycle;Max_cycle;Signal;HPM_P1;HPM_P2
2023/01/22 13:41:40;;;;;;;16.73;8.93;;;1.40;99.90;;;;;;5089006;28;20324;-63
2023/01/22 13:44:11;;;;;;;24.70;10.55;;;1.40;99.90;;;;;;5075090;28;20466;-63
2023/01/22 13:46:37;;;;;;;21.73;10.55;;;1.50;99.90;;;;;;5071662;28;20115;-63
2023/01/22 13:49:16;;;;;;;20.40;10.75;;;1.60;99.90;;;;;;5089196;28;20377;-63
2023/01/22 13:51:42;;;;;;;23.50;11.90;;;1.70;99.90;;;;;;5084558;28;20070;-64
2023/01/22 13:54:18;;;;;;;20.20;11.55;;;1.80;99.90;;;;;;5087219;28;20032;-64
2023/01/22 13:56:43;;;;;;;23.67;11.85;;;1.90;99.90;;;;;;5087383;28;20012;-63
2023/01/22 13:59:21;;;;;;;26.52;12.68;;;1.90;99.90;;;;;;5086534;28;20103;-63
2023/01/22 14:01:48;;;;;;;22.02;11.90;;;2.00;99.90;;;;;;5068470;28;20489;-64
2023/01/22 14:04:34;;;;;;;18.80;10.85;;;2.00;99.90;;;;;;5074307;28;20027;-64
2023/01/22 14:07:00;;;;;;;20.63;10.55;;;2.00;99.90;;;;;;5087023;28;20103;-65
2023/01/22 14:09:34;;;;;;;21.13;11.32;;;2.10;99.90;;;;;;5088807;28;20024;-63
2023/01/22 14:12:12;;;;;;;21.35;10.43;;;2.10;99.90;;;;;;5086324;28;20035;-64
2023/01/22 14:14:39;;;;;;;22.10;10.25;;;2.10;99.90;;;;;;5087903;28;20025;-63
2023/01/22 14:17:05;;;;;;;18.92;10.45;;;2.10;99.90;;;;;;5087558;28;20044;-63
2023/01/22 14:19:31;;;;;;;18.98;10.25;;;2.10;99.90;;;;;;5087296;28;20071;-64
2023/01/22 14:21:56;;;;;;;21.48;11.02;;;2.10;99.90;;;;;;5088722;28;20033;-63
2023/01/22 14:24:22;;;;;;;21.92;11.77;;;2.10;99.90;;;;;;5087172;28;20021;-63
2023/01/22 14:26:48;;;;;;;21.25;10.10;;;2.10;99.90;;;;;;5086303;28;20032;-64
2023/01/22 14:29:14;;;;;;;18.00;10.23;;;2.10;99.90;;;;;;5088479;28;20020;-63
2023/01/22 14:31:40;;;;;;;18.25;10.57;;;2.10;99.90;;;;;;5085710;28;20035;-63
2023/01/22 14:34:07;;;;;;;18.00;10.25;;;2.10;99.90;;;;;;5088455;28;20020;-63
2023/01/22 14:36:33;;;;;;;18.95;10.30;;;2.10;99.90;;;;;;5087850;28;20107;-63
2023/01/22 14:38:59;;;;;;;21.83;10.50;;;2.10;99.90;;;;;;5087489;28;20095;-64
2023/01/22 14:41:24;;;;;;;17.98;10.32;;;2.10;99.90;;;;;;5106434;28;20146;-64
2023/01/22 14:43:50;;;;;;;19.77;9.95;;;2.00;99.90;;;;;;5108130;28;20430;-64
2023/01/22 14:46:15;;;;;;;17.48;10.18;;;2.00;99.90;;;;;;5089625;28;20564;-64
2023/01/22 14:48:41;;;;;;;21.48;10.40;;;2.00;99.90;;;;;;5108036;28;20095;-63
2023/01/22 14:51:11;;;;;;;18.42;9.38;;;2.10;99.90;;;;;;5105354;28;20345;-64
2023/01/22 14:53:37;;;;;;;23.65;10.25;;;2.10;99.90;;;;;;5093701;28;20028;-64
2023/01/22 14:56:03;;;;;;;16.80;9.57;;;2.10;99.90;;;;;;5076500;28;20115;-63
2023/01/22 14:58:29;;;;;;;18.15;10.65;;;2.00;99.90;;;;;;5094564;28;20472;-63
2023/01/22 15:00:55;;;;;;;16.92;10.10;;;2.10;99.90;;;;;;5075196;28;20165;-64
2023/01/22 15:03:20;;;;;;;21.58;10.23;;;2.00;99.90;;;;;;5076463;28;20138;-64
2023/01/22 15:05:50;;;;;;;22.17;11.27;;;2.00;99.90;;;;;;5093530;28;20480;-64
2023/01/22 15:08:16;;;;;;;20.30;9.85;;;2.00;99.90;;;;;;5094454;28;20082;-64
2023/01/22 15:10:41;;;;;;;19.10;10.10;;;2.00;99.90;;;;;;5094060;28;20047;-63
2023/01/22 15:13:07;;;;;;;20.50;10.63;;;2.00;99.90;;;;;;5075416;28;20028;-63
2023/01/22 15:15:32;;;;;;;19.80;10.10;;;2.00;99.90;;;;;;5094222;28;20464;-64
2023/01/22 15:17:58;;;;;;;19.73;10.10;;;2.00;99.90;;;;;;5094109;28;20016;-64
2023/01/22 15:20:24;;;;;;;19.65;9.68;;;2.00;99.90;;;;;;5093315;28;20485;-64
2023/01/22 15:22:50;;;;;;;17.58;10.05;;;2.00;99.90;;;;;;5093807;28;20123;-64
2023/01/22 15:25:16;;;;;;;18.83;9.75;;;2.00;99.90;;;;;;5094073;28;20030;-64
2023/01/22 15:27:43;;;;;;;21.10;10.20;;;2.00;99.90;;;;;;5074733;28;20452;-64
2023/01/22 15:30:09;;;;;;;20.75;10.57;;;2.00;99.90;;;;;;5094009;28;20055;-64
2023/01/22 15:32:35;;;;;;;22.17;11.48;;;2.00;99.90;;;;;;5063192;28;20031;-63
2023/01/22 15:35:01;;;;;;;25.10;11.73;;;2.00;99.90;;;;;;5073415;28;20024;-63
2023/01/22 15:37:26;;;;;;;23.60;12.25;;;2.00;99.90;;;;;;5093516;28;20498;-64
2023/01/22 15:39:52;;;;;;;25.30;12.25;;;2.00;99.90;;;;;;5085129;28;20059;-63
2023/01/22 15:42:18;;;;;;;30.13;13.35;;;2.00;99.90;;;;;;5072691;28;20032;-62
2023/01/22 15:44:43;;;;;;;24.40;12.18;;;2.00;99.90;;;;;;5077136;28;20033;-61
2023/01/22 15:47:09;;;;;;;23.65;12.35;;;2.00;99.90;;;;;;5080121;28;20028;-61
2023/01/22 15:49:35;;;;;;;22.42;11.43;;;2.00;99.90;;;;;;5082720;28;20024;-62
2023/01/22 15:52:01;;;;;;;33.97;14.82;;;1.90;99.90;;;;;;5082246;28;20044;-61
2023/01/22 15:54:27;;;;;;;20.27;11.68;;;2.00;99.90;;;;;;5090362;28;20032;-62
2023/01/22 15:56:53;;;;;;;18.25;11.43;;;1.90;99.90;;;;;;5091579;28;20049;-62
2023/01/22 15:59:18;;;;;;;20.60;10.30;;;1.90;99.90;;;;;;5075473;28;20487;-61
2023/01/22 16:01:44;;;;;;;18.98;9.98;;;1.90;99.90;;;;;;5093535;28;20034;-62
2023/01/22 16:04:10;;;;;;;18.27;9.95;;;1.90;99.90;;;;;;5091984;28;20050;-63
2023/01/22 16:06:36;;;;;;;19.08;10.18;;;1.90;99.90;;;;;;5075362;28;20028;-63
2023/01/22 16:09:04;;;;;;;22.02;10.57;;;1.90;99.90;;;;;;5091495;28;20013;-61
2023/01/22 16:11:31;;;;;;;23.52;10.57;;;1.90;99.90;;;;;;5085941;28;20021;-62
2023/01/22 16:13:58;;;;;;;22.13;10.52;;;1.90;99.90;;;;;;5089393;28;20020;-62
2023/01/22 16:16:32;;;;;;;20.90;10.93;;;1.90;99.90;;;;;;5072587;28;20115;-62
2023/01/22 16:18:59;;;;;;;20.50;9.60;;;1.90;99.90;;;;;;5074183;28;20101;-61
2023/01/22 16:21:25;;;;;;;20.13;9.98;;;1.80;99.90;;;;;;5093348;28;20107;-60
2023/01/22 16:23:54;;;;;;;24.50;10.40;;;1.90;99.90;;;;;;5092692;28;20360;-62
2023/01/22 16:26:22;;;;;;;20.25;11.43;;;1.80;99.90;;;;;;5093463;28;20028;-61
2023/01/22 16:28:50;;;;;;;20.60;10.80;;;1.80;99.90;;;;;;5091616;28;20020;-61
2023/01/22 16:31:19;;;;;;;18.10;9.80;;;1.80;99.90;;;;;;5072144;28;20067;-61
2023/01/22 16:33:46;;;;;;;16.75;9.98;;;1.90;99.90;;;;;;5072351;28;20150;-62
2023/01/22 16:36:15;;;;;;;20.90;11.07;;;1.90;99.90;;;;;;5072672;28;20060;-62
2023/01/22 16:38:41;;;;;;;19.80;11.52;;;1.90;99.90;;;;;;5073039;28;20029;-63
2023/01/22 16:41:18;;;;;;;18.75;10.63;;;1.90;99.90;;;;;;5072634;28;20130;-62
2023/01/22 16:43:45;;;;;;;18.00;9.80;;;1.90;99.90;;;;;;5073695;28;20028;-61
2023/01/22 16:46:12;;;;;;;20.15;10.70;;;1.90;99.90;;;;;;5071863;28;20086;-61
2023/01/22 16:48:38;;;;;;;19.23;10.40;;;1.80;99.90;;;;;;5054360;28;20024;-60
2023/01/22 16:51:04;;;;;;;16.50;9.50;;;1.90;99.90;;;;;;5062513;28;20028;-60
2023/01/22 16:53:29;;;;;;;20.67;10.40;;;1.80;99.90;;;;;;5091854;28;20473;-61
2023/01/22 16:55:55;;;;;;;17.38;9.73;;;1.80;99.90;;;;;;5092325;28;20028;-60
2023/01/22 16:58:20;;;;;;;22.02;10.93;;;1.90;99.90;;;;;;5092147;28;20024;-61
2023/01/22 17:00:46;;;;;;;20.17;11.32;;;1.80;99.90;;;;;;5091839;28;20036;-61
2023/01/22 17:03:12;;;;;;;21.02;10.30;;;1.80;99.90;;;;;;5092622;28;20492;-62
2023/01/22 17:05:38;;;;;;;23.35;10.55;;;1.90;99.90;;;;;;5085223;28;20102;-62
2023/01/22 17:08:04;;;;;;;18.63;9.88;;;1.90;99.90;;;;;;5072465;28;20076;-62
2023/01/22 17:10:29;;;;;;;18.35;10.23;;;1.80;99.90;;;;;;5072375;28;20024;-61
2023/01/22 17:12:56;;;;;;;18.80;10.30;;;1.90;99.90;;;;;;5079163;28;20043;-61
2023/01/22 17:15:21;;;;;;;20.00;10.90;;;1.90;99.90;;;;;;5092122;28;20035;-61
2023/01/22 17:17:47;;;;;;;22.80;10.82;;;1.90;99.90;;;;;;5092171;28;20020;-63
2023/01/22 17:20:12;;;;;;;22.40;11.27;;;1.90;99.90;;;;;;5091767;28;20045;-62
2023/01/22 17:22:38;;;;;;;34.92;15.95;;;1.90;99.90;;;;;;5073917;28;20088;-62
2023/01/22 17:25:04;;;;;;;26.88;13.50;;;1.90;99.90;;;;;;5092273;28;20425;-64
2023/01/22 17:27:30;;;;;;;36.95;16.60;;;1.90;99.90;;;;;;5070226;28;20028;-64
2023/01/22 17:29:56;;;;;;;31.25;14.98;;;1.90;99.90;;;;;;5092172;28;20066;-62
2023/01/22 17:32:22;;;;;;;29.88;13.93;;;1.90;99.90;;;;;;5092080;28;20047;-62
2023/01/22 17:34:47;;;;;;;30.38;14.70;;;1.90;99.90;;;;;;5091249;28;20405;-64
2023/01/22 17:37:13;;;;;;;25.05;12.98;;;1.90;99.90;;;;;;5081499;28;20509;-63
2023/01/22 17:39:41;;;;;;;25.92;13.25;;;1.90;99.90;;;;;;5071459;28;20033;-63
2023/01/22 17:42:07;;;;;;;23.55;11.48;;;1.90;99.90;;;;;;5071366;28;20473;-63
2023/01/22 17:44:33;;;;;;;22.23;11.95;;;1.90;99.90;;;;;;5072685;28;20024;-63
2023/01/22 17:47:01;;;;;;;22.58;11.75;;;1.90;99.90;;;;;;5071823;28;20017;-63
2023/01/22 17:49:28;;;;;;;19.38;11.65;;;1.90;99.90;;;;;;5070735;28;20078;-66
2023/01/22 17:51:54;;;;;;;26.50;11.90;;;1.90;99.90;;;;;;5071461;28;20496;-62
2023/01/22 17:54:20;;;;;;;25.23;11.15;;;1.90;99.90;;;;;;5072693;28;20031;-60
2023/01/22 17:56:47;;;;;;;23.05;10.10;;;1.90;99.90;;;;;;5070949;28;20093;-62
2023/01/22 17:59:14;;;;;;;23.33;12.20;;;1.90;99.90;;;;;;5071334;28;20381;-65
2023/01/22 18:01:40;;;;;;;26.65;11.75;;;1.90;99.90;;;;;;5070541;28;20135;-62
2023/01/22 18:04:08;;;;;;;23.65;12.40;;;1.90;99.90;;;;;;5071541;28;20470;-63
2023/01/22 18:06:34;;;;;;;20.08;10.75;;;1.90;99.90;;;;;;5071076;28;20115;-62
2023/01/22 18:09:01;;;;;;;22.20;12.68;;;1.90;99.90;;;;;;5072312;28;20023;-62
2023/01/22 18:11:28;;;;;;;22.83;11.57;;;1.90;99.90;;;;;;5071946;28;20032;-63
2023/01/22 18:13:59;;;;;;;25.45;12.82;;;2.00;99.90;;;;;;5071461;28;20544;-64
2023/01/22 18:16:28;;;;;;;20.52;10.98;;;2.00;99.90;;;;;;5071337;28;20024;-64
2023/01/22 18:18:55;;;;;;;18.83;10.93;;;2.00;99.90;;;;;;5091387;28;20103;-62
2023/01/22 18:21:22;;;;;;;19.98;11.68;;;2.00;99.90;;;;;;5089715;28;20059;-64
2023/01/22 18:23:48;;;;;;;26.33;11.80;;;2.00;99.90;;;;;;5070900;28;20140;-65
2023/01/22 18:26:15;;;;;;;19.85;10.90;;;2.00;99.90;;;;;;5072193;28;20020;-66
2023/01/22 18:28:41;;;;;;;18.65;11.27;;;2.00;99.90;;;;;;5057338;28;20020;-64
2023/01/22 18:31:10;;;;;;;20.80;10.20;;;2.00;99.90;;;;;;5074620;28;20492;-64
2023/01/22 18:33:37;;;;;;;28.23;12.63;;;2.00;99.90;;;;;;5074972;28;20024;-65
2023/01/22 18:36:05;;;;;;;23.80;10.68;;;2.00;99.90;;;;;;5076256;28;20031;-64
2023/01/22 18:38:33;;;;;;;18.17;10.50;;;2.00;99.90;;;;;;5058478;28;20161;-63
2023/01/22 18:41:09;;;;;;;21.73;11.20;;;2.00;99.90;;;;;;5070320;28;20131;-63
2023/01/22 18:43:35;;;;;;;26.90;13.98;;;2.00;99.90;;;;;;5076046;28;20024;-63
2023/01/22 18:46:03;;;;;;;27.17;14.77;;;2.00;99.90;;;;;;5075574;28;20036;-64
2023/01/22 18:48:28;;;;;;;25.25;13.13;;;2.00;99.90;;;;;;5056351;28;20048;-64
2023/01/22 18:50:54;;;;;;;20.85;11.40;;;2.00;99.90;;;;;;5067468;28;20052;-63
